sensor_id;sensor_type;location;lat;lon;timestamp;temperature;humidity
33863;DHT22;20158;51.436;-2.742;2023-06-14T00:00:21;23.90;50.80
33863;DHT22;20158;51.436;-2.742;2023-06-14T00:02:48;23.80;50.70
33863;DHT22;20158;51.436;-2.742;2023-06-14T00:05:14;23.80;50.80
33863;DHT22;20158;51.436;-2.742;2023-06-14T00:07:41;23.80;51.00
33863;DHT22;20158;51.436;-2.742;2023-06-14T00:10:11;23.70;50.80
33863;DHT22;20158;51.436;-2.742;2023-06-14T00:12:41;23.70;50.90
33863;DHT22;20158;51.436;-2.742;2023-06-14T00:15:27;23.50;50.70
33863;DHT22;20158;51.436;-2.742;2023-06-14T00:17:54;23.50;50.70
33863;DHT22;20158;51.436;-2.742;2023-06-14T00:20:21;23.50;50.80
33863;DHT22;20158;51.436;-2.742;2023-06-14T00:22:47;23.40;50.70
33863;DHT22;20158;51.436;-2.742;2023-06-14T00:25:14;23.40;50.80
33863;DHT22;20158;51.436;-2.742;2023-06-14T00:27:43;23.30;50.70
33863;DHT22;20158;51.436;-2.742;2023-06-14T00:30:10;23.30;50.80
33863;DHT22;20158;51.436;-2.742;2023-06-14T00:32:36;23.20;50.70
33863;DHT22;20158;51.436;-2.742;2023-06-14T00:35:05;23.20;50.80
33863;DHT22;20158;51.436;-2.742;2023-06-14T00:37:33;23.10;50.70
33863;DHT22;20158;51.436;-2.742;2023-06-14T00:39:59;23.10;50.80
33863;DHT22;20158;51.436;-2.742;2023-06-14T00:42:26;23.00;50.70
33863;DHT22;20158;51.436;-2.742;2023-06-14T00:44:55;23.00;50.80
33863;DHT22;20158;51.436;-2.742;2023-06-14T00:47:22;22.90;50.70
33863;DHT22;20158;51.436;-2.742;2023-06-14T00:49:53;22.90;50.80
33863;DHT22;20158;51.436;-2.742;2023-06-14T00:52:26;22.80;50.70
33863;DHT22;20158;51.436;-2.742;2023-06-14T00:54:53;22.70;50.60
33863;DHT22;20158;51.436;-2.742;2023-06-14T00:57:20;22.70;50.70
33863;DHT22;20158;51.436;-2.742;2023-06-14T00:59:48;22.70;50.80
33863;DHT22;20158;51.436;-2.742;2023-06-14T01:02:16;22.60;50.70
33863;DHT22;20158;51.436;-2.742;2023-06-14T01:04:48;22.50;50.60
33863;DHT22;20158;51.436;-2.742;2023-06-14T01:10:03;22.50;50.60
33863;DHT22;20158;51.436;-2.742;2023-06-14T01:13:07;22.30;50.30
33863;DHT22;20158;51.436;-2.742;2023-06-14T01:15:34;22.30;50.50
33863;DHT22;20158;51.436;-2.742;2023-06-14T01:18:11;22.30;50.50
33863;DHT22;20158;51.436;-2.742;2023-06-14T01:20:44;22.20;50.40
33863;DHT22;20158;51.436;-2.742;2023-06-14T01:23:11;22.10;50.30
33863;DHT22;20158;51.436;-2.742;2023-06-14T01:25:38;22.10;50.60
33863;DHT22;20158;51.436;-2.742;2023-06-14T01:28:15;22.00;50.40
33863;DHT22;20158;51.436;-2.742;2023-06-14T01:31:03;22.00;50.40
33863;DHT22;20158;51.436;-2.742;2023-06-14T01:33:31;22.00;50.50
33863;DHT22;20158;51.436;-2.742;2023-06-14T01:36:00;21.90;50.40
33863;DHT22;20158;51.436;-2.742;2023-06-14T01:38:30;21.90;50.50
33863;DHT22;20158;51.436;-2.742;2023-06-14T01:40:59;21.80;50.40
33863;DHT22;20158;51.436;-2.742;2023-06-14T01:43:26;21.80;50.50
33863;DHT22;20158;51.436;-2.742;2023-06-14T01:45:54;21.70;50.30
33863;DHT22;20158;51.436;-2.742;2023-06-14T01:48:22;21.70;50.40
33863;DHT22;20158;51.436;-2.742;2023-06-14T01:50:49;21.70;50.50
33863;DHT22;20158;51.436;-2.742;2023-06-14T01:53:21;21.60;50.30
33863;DHT22;20158;51.436;-2.742;2023-06-14T01:55:47;21.50;50.20
33863;DHT22;20158;51.436;-2.742;2023-06-14T01:58:15;21.50;50.30
33863;DHT22;20158;51.436;-2.742;2023-06-14T02:00:47;21.50;50.30
33863;DHT22;20158;51.436;-2.742;2023-06-14T02:03:14;21.40;50.20
33863;DHT22;20158;51.436;-2.742;2023-06-14T02:05:41;21.40;50.30
33863;DHT22;20158;51.436;-2.742;2023-06-14T02:08:10;21.30;50.10
33863;DHT22;20158;51.436;-2.742;2023-06-14T02:10:37;21.30;50.20
33863;DHT22;20158;51.436;-2.742;2023-06-14T02:13:04;21.20;50.10
33863;DHT22;20158;51.436;-2.742;2023-06-14T02:15:30;21.20;50.10
33863;DHT22;20158;51.436;-2.742;2023-06-14T02:18:05;21.10;50.00
33863;DHT22;20158;51.436;-2.742;2023-06-14T02:20:34;21.10;50.10
33863;DHT22;20158;51.436;-2.742;2023-06-14T02:23:03;21.00;49.90
33863;DHT22;20158;51.436;-2.742;2023-06-14T02:25:33;21.00;50.00
33863;DHT22;20158;51.436;-2.742;2023-06-14T02:28:00;20.90;49.90
33863;DHT22;20158;51.436;-2.742;2023-06-14T02:30:27;20.90;49.90
33863;DHT22;20158;51.436;-2.742;2023-06-14T02:32:56;20.90;50.10
33863;DHT22;20158;51.436;-2.742;2023-06-14T02:35:26;20.80;49.90
33863;DHT22;20158;51.436;-2.742;2023-06-14T02:37:56;20.80;50.10
33863;DHT22;20158;51.436;-2.742;2023-06-14T02:40:23;20.80;50.00
33863;DHT22;20158;51.436;-2.742;2023-06-14T02:42:51;20.80;50.00
33863;DHT22;20158;51.436;-2.742;2023-06-14T02:45:17;20.70;50.50
33863;DHT22;20158;51.436;-2.742;2023-06-14T02:47:43;20.60;49.80
33863;DHT22;20158;51.436;-2.742;2023-06-14T02:50:12;20.60;49.80
33863;DHT22;20158;51.436;-2.742;2023-06-14T02:52:38;20.50;49.60
33863;DHT22;20158;51.436;-2.742;2023-06-14T02:55:06;20.50;49.70
33863;DHT22;20158;51.436;-2.742;2023-06-14T02:57:34;20.50;49.80
33863;DHT22;20158;51.436;-2.742;2023-06-14T03:00:04;20.40;49.70
33863;DHT22;20158;51.436;-2.742;2023-06-14T03:02:34;20.40;49.70
33863;DHT22;20158;51.436;-2.742;2023-06-14T03:05:02;20.30;49.60
33863;DHT22;20158;51.436;-2.742;2023-06-14T03:07:30;20.30;49.60
33863;DHT22;20158;51.436;-2.742;2023-06-14T03:10:01;20.20;49.50
33863;DHT22;20158;51.436;-2.742;2023-06-14T03:12:29;20.20;49.60
33863;DHT22;20158;51.436;-2.742;2023-06-14T03:14:59;20.10;49.40
33863;DHT22;20158;51.436;-2.742;2023-06-14T03:17:43;20.10;49.50
33863;DHT22;20158;51.436;-2.742;2023-06-14T03:20:17;20.10;49.50
33863;DHT22;20158;51.436;-2.742;2023-06-14T03:22:46;20.00;49.40
33863;DHT22;20158;51.436;-2.742;2023-06-14T03:25:17;20.00;49.50
33863;DHT22;20158;51.436;-2.742;2023-06-14T03:27:49;19.90;49.30
33863;DHT22;20158;51.436;-2.742;2023-06-14T03:30:24;19.90;49.40
33863;DHT22;20158;51.436;-2.742;2023-06-14T03:32:55;19.80;49.20
33863;DHT22;20158;51.436;-2.742;2023-06-14T03:35:30;19.80;49.30
33863;DHT22;20158;51.436;-2.742;2023-06-14T03:37:56;19.80;49.40
33863;DHT22;20158;51.436;-2.742;2023-06-14T03:40:24;19.70;49.30
33863;DHT22;20158;51.436;-2.742;2023-06-14T03:43:01;19.70;49.40
33863;DHT22;20158;51.436;-2.742;2023-06-14T03:45:30;19.60;49.20
33863;DHT22;20158;51.436;-2.742;2023-06-14T03:48:04;19.60;49.30
33863;DHT22;20158;51.436;-2.742;2023-06-14T03:50:33;19.50;49.20
33863;DHT22;20158;51.436;-2.742;2023-06-14T03:52:59;19.50;49.30
33863;DHT22;20158;51.436;-2.742;2023-06-14T03:55:27;19.50;49.40
33863;DHT22;20158;51.436;-2.742;2023-06-14T03:57:54;19.50;49.50
33863;DHT22;20158;51.436;-2.742;2023-06-14T04:00:40;19.40;50.00
33863;DHT22;20158;51.436;-2.742;2023-06-14T04:03:06;19.40;49.50
33863;DHT22;20158;51.436;-2.742;2023-06-14T04:05:33;19.40;49.60
33863;DHT22;20158;51.436;-2.742;2023-06-14T04:08:00;19.30;49.50
33863;DHT22;20158;51.436;-2.742;2023-06-14T04:10:27;19.30;49.60
33863;DHT22;20158;51.436;-2.742;2023-06-14T04:12:56;19.30;49.70
33863;DHT22;20158;51.436;-2.742;2023-06-14T04:15:23;19.20;49.50
33863;DHT22;20158;51.436;-2.742;2023-06-14T04:17:52;19.20;49.70
33863;DHT22;20158;51.436;-2.742;2023-06-14T04:20:43;19.20;49.80
33863;DHT22;20158;51.436;-2.742;2023-06-14T04:23:30;19.10;49.60
33863;DHT22;20158;51.436;-2.742;2023-06-14T04:25:56;19.10;50.20
33863;DHT22;20158;51.436;-2.742;2023-06-14T04:28:30;19.10;49.70
33863;DHT22;20158;51.436;-2.742;2023-06-14T04:30:59;19.10;49.80
33863;DHT22;20158;51.436;-2.742;2023-06-14T04:33:30;19.10;49.80
33863;DHT22;20158;51.436;-2.742;2023-06-14T04:35:57;19.10;49.90
33863;DHT22;20158;51.436;-2.742;2023-06-14T04:38:30;19.10;49.90
33863;DHT22;20158;51.436;-2.742;2023-06-14T04:41:03;19.00;49.80
33863;DHT22;20158;51.436;-2.742;2023-06-14T04:43:34;19.00;49.80
33863;DHT22;20158;51.436;-2.742;2023-06-14T04:46:07;19.00;49.80
33863;DHT22;20158;51.436;-2.742;2023-06-14T04:48:40;19.00;49.80
33863;DHT22;20158;51.436;-2.742;2023-06-14T04:51:10;19.00;49.70
33863;DHT22;20158;51.436;-2.742;2023-06-14T04:53:36;19.00;49.60
33863;DHT22;20158;51.436;-2.742;2023-06-14T04:56:04;19.00;49.60
33863;DHT22;20158;51.436;-2.742;2023-06-14T04:58:35;18.90;49.50
33863;DHT22;20158;51.436;-2.742;2023-06-14T05:01:07;19.00;49.70
33863;DHT22;20158;51.436;-2.742;2023-06-14T05:03:35;18.90;49.50
33863;DHT22;20158;51.436;-2.742;2023-06-14T05:06:02;18.90;49.50
33863;DHT22;20158;51.436;-2.742;2023-06-14T05:08:31;19.00;49.60
33863;DHT22;20158;51.436;-2.742;2023-06-14T05:10:59;18.90;49.30
33863;DHT22;20158;51.436;-2.742;2023-06-14T05:13:27;18.90;49.20
33863;DHT22;20158;51.436;-2.742;2023-06-14T05:15:59;19.00;49.30
33863;DHT22;20158;51.436;-2.742;2023-06-14T05:18:25;19.00;49.20
33863;DHT22;20158;51.436;-2.742;2023-06-14T05:20:51;19.00;49.10
33863;DHT22;20158;51.436;-2.742;2023-06-14T05:23:17;19.00;48.90
33863;DHT22;20158;51.436;-2.742;2023-06-14T05:25:46;19.10;49.00
33863;DHT22;20158;51.436;-2.742;2023-06-14T05:28:33;19.10;48.80
33863;DHT22;20158;51.436;-2.742;2023-06-14T05:31:15;19.20;48.70
33863;DHT22;20158;51.436;-2.742;2023-06-14T05:33:41;19.30;48.60
33863;DHT22;20158;51.436;-2.742;2023-06-14T05:36:07;19.40;48.60
33863;DHT22;20158;51.436;-2.742;2023-06-14T05:38:33;19.50;48.60
33863;DHT22;20158;51.436;-2.742;2023-06-14T05:41:08;19.60;48.50
33863;DHT22;20158;51.436;-2.742;2023-06-14T05:43:34;19.70;48.40
33863;DHT22;20158;51.436;-2.742;2023-06-14T05:46:02;19.90;48.60
33863;DHT22;20158;51.436;-2.742;2023-06-14T05:48:29;20.00;48.50
33863;DHT22;20158;51.436;-2.742;2023-06-14T05:50:56;20.20;48.50
33863;DHT22;20158;51.436;-2.742;2023-06-14T05:53:25;20.40;48.60
33863;DHT22;20158;51.436;-2.742;2023-06-14T05:55:56;20.60;48.60
33863;DHT22;20158;51.436;-2.742;2023-06-14T05:58:23;20.80;48.60
33863;DHT22;20158;51.436;-2.742;2023-06-14T06:00:49;21.00;48.60
33863;DHT22;20158;51.436;-2.742;2023-06-14T06:03:15;21.20;48.60
33863;DHT22;20158;51.436;-2.742;2023-06-14T06:05:41;21.50;49.10
33863;DHT22;20158;51.436;-2.742;2023-06-14T06:08:07;21.70;50.00
33863;DHT22;20158;51.436;-2.742;2023-06-14T06:10:37;21.90;50.70
33863;DHT22;20158;51.436;-2.742;2023-06-14T06:13:03;22.20;51.30
33863;DHT22;20158;51.436;-2.742;2023-06-14T06:15:29;22.50;52.10
33863;DHT22;20158;51.436;-2.742;2023-06-14T06:17:56;22.70;52.40
33863;DHT22;20158;51.436;-2.742;2023-06-14T06:20:23;23.00;52.80
33863;DHT22;20158;51.436;-2.742;2023-06-14T06:22:53;23.20;52.80
33863;DHT22;20158;51.436;-2.742;2023-06-14T06:25:26;23.60;53.00
33863;DHT22;20158;51.436;-2.742;2023-06-14T06:27:54;23.90;52.80
33863;DHT22;20158;51.436;-2.742;2023-06-14T06:30:24;24.20;52.50
33863;DHT22;20158;51.436;-2.742;2023-06-14T06:32:52;24.60;52.80
33863;DHT22;20158;51.436;-2.742;2023-06-14T06:35:19;25.00;52.10
33863;DHT22;20158;51.436;-2.742;2023-06-14T06:37:45;25.40;51.40
33863;DHT22;20158;51.436;-2.742;2023-06-14T06:40:11;25.80;50.90
33863;DHT22;20158;51.436;-2.742;2023-06-14T06:42:37;26.20;50.10
33863;DHT22;20158;51.436;-2.742;2023-06-14T06:45:07;26.50;49.50
33863;DHT22;20158;51.436;-2.742;2023-06-14T06:47:37;26.90;49.60
33863;DHT22;20158;51.436;-2.742;2023-06-14T06:50:03;27.20;49.10
33863;DHT22;20158;51.436;-2.742;2023-06-14T06:52:30;27.40;48.20
33863;DHT22;20158;51.436;-2.742;2023-06-14T06:54:59;27.70;47.90
33863;DHT22;20158;51.436;-2.742;2023-06-14T06:57:31;28.00;47.60
33863;DHT22;20158;51.436;-2.742;2023-06-14T07:00:00;28.30;47.20
33863;DHT22;20158;51.436;-2.742;2023-06-14T07:02:26;28.60;46.70
33863;DHT22;20158;51.436;-2.742;2023-06-14T07:04:52;29.00;46.10
33863;DHT22;20158;51.436;-2.742;2023-06-14T07:07:19;29.30;45.50
33863;DHT22;20158;51.436;-2.742;2023-06-14T07:09:48;29.70;44.90
33863;DHT22;20158;51.436;-2.742;2023-06-14T07:12:15;30.10;44.30
33863;DHT22;20158;51.436;-2.742;2023-06-14T07:14:43;30.30;43.80
33863;DHT22;20158;51.436;-2.742;2023-06-14T07:17:10;30.60;43.30
33863;DHT22;20158;51.436;-2.742;2023-06-14T07:19:37;30.80;43.00
33863;DHT22;20158;51.436;-2.742;2023-06-14T07:22:03;30.80;43.00
33863;DHT22;20158;51.436;-2.742;2023-06-14T07:24:29;30.80;43.00
33863;DHT22;20158;51.436;-2.742;2023-06-14T07:26:55;30.70;43.00
33863;DHT22;20158;51.436;-2.742;2023-06-14T07:29:22;30.80;43.10
33863;DHT22;20158;51.436;-2.742;2023-06-14T07:31:51;30.80;43.10
33863;DHT22;20158;51.436;-2.742;2023-06-14T07:34:17;31.20;42.70
33863;DHT22;20158;51.436;-2.742;2023-06-14T07:37:03;31.70;42.00
33863;DHT22;20158;51.436;-2.742;2023-06-14T07:39:30;32.20;41.40
33863;DHT22;20158;51.436;-2.742;2023-06-14T07:41:56;32.60;40.70
33863;DHT22;20158;51.436;-2.742;2023-06-14T07:44:29;33.00;40.10
33863;DHT22;20158;51.436;-2.742;2023-06-14T07:46:55;33.40;39.50
33863;DHT22;20158;51.436;-2.742;2023-06-14T07:49:24;33.90;39.00
33863;DHT22;20158;51.436;-2.742;2023-06-14T07:51:50;34.30;38.50
33863;DHT22;20158;51.436;-2.742;2023-06-14T07:54:20;34.70;38.00
33863;DHT22;20158;51.436;-2.742;2023-06-14T07:56:51;35.10;37.60
33863;DHT22;20158;51.436;-2.742;2023-06-14T07:59:17;35.40;37.20
33863;DHT22;20158;51.436;-2.742;2023-06-14T08:01:43;35.60;36.80
33863;DHT22;20158;51.436;-2.742;2023-06-14T08:04:15;35.50;36.90
33863;DHT22;20158;51.436;-2.742;2023-06-14T08:06:51;35.20;37.40
33863;DHT22;20158;51.436;-2.742;2023-06-14T08:09:19;34.90;38.00
33863;DHT22;20158;51.436;-2.742;2023-06-14T08:11:45;34.50;38.50
33863;DHT22;20158;51.436;-2.742;2023-06-14T08:14:14;34.20;38.80
33863;DHT22;20158;51.436;-2.742;2023-06-14T08:16:44;33.90;38.90
33863;DHT22;20158;51.436;-2.742;2023-06-14T08:19:12;33.60;39.00
33863;DHT22;20158;51.436;-2.742;2023-06-14T08:21:42;33.50;39.30
33863;DHT22;20158;51.436;-2.742;2023-06-14T08:24:11;33.30;39.40
33863;DHT22;20158;51.436;-2.742;2023-06-14T08:26:38;33.10;39.30
33863;DHT22;20158;51.436;-2.742;2023-06-14T08:29:05;33.10;39.40
33863;DHT22;20158;51.436;-2.742;2023-06-14T08:31:33;33.00;39.30
33863;DHT22;20158;51.436;-2.742;2023-06-14T08:34:02;32.90;39.10
33863;DHT22;20158;51.436;-2.742;2023-06-14T08:36:28;32.90;39.20
33863;DHT22;20158;51.436;-2.742;2023-06-14T08:38:54;32.90;39.10
33863;DHT22;20158;51.436;-2.742;2023-06-14T08:41:22;32.80;39.10
33863;DHT22;20158;51.436;-2.742;2023-06-14T08:43:53;32.90;39.00
33863;DHT22;20158;51.436;-2.742;2023-06-14T08:46:25;32.90;38.90
33863;DHT22;20158;51.436;-2.742;2023-06-14T08:48:55;32.90;38.60
33863;DHT22;20158;51.436;-2.742;2023-06-14T08:51:25;33.00;38.50
33863;DHT22;20158;51.436;-2.742;2023-06-14T08:54:03;33.00;38.30
33863;DHT22;20158;51.436;-2.742;2023-06-14T08:56:31;33.00;38.30
33863;DHT22;20158;51.436;-2.742;2023-06-14T08:59:00;33.00;38.10
33863;DHT22;20158;51.436;-2.742;2023-06-14T09:01:28;33.00;38.00
33863;DHT22;20158;51.436;-2.742;2023-06-14T09:03:55;33.00;37.90
33863;DHT22;20158;51.436;-2.742;2023-06-14T09:06:23;33.10;38.00
33863;DHT22;20158;51.436;-2.742;2023-06-14T09:08:50;33.20;37.90
33863;DHT22;20158;51.436;-2.742;2023-06-14T09:11:18;33.20;37.70
33863;DHT22;20158;51.436;-2.742;2023-06-14T09:13:46;33.30;38.20
33863;DHT22;20158;51.436;-2.742;2023-06-14T09:16:15;33.30;37.50
33863;DHT22;20158;51.436;-2.742;2023-06-14T09:18:46;33.40;37.70
33863;DHT22;20158;51.436;-2.742;2023-06-14T09:21:18;33.40;36.90
33863;DHT22;20158;51.436;-2.742;2023-06-14T09:23:47;33.20;36.10
33863;DHT22;20158;51.436;-2.742;2023-06-14T09:26:14;33.00;35.50
33863;DHT22;20158;51.436;-2.742;2023-06-14T09:28:50;32.80;35.10
33863;DHT22;20158;51.436;-2.742;2023-06-14T09:31:18;32.60;34.90
33863;DHT22;20158;51.436;-2.742;2023-06-14T09:33:46;32.50;34.90
33863;DHT22;20158;51.436;-2.742;2023-06-14T09:36:24;32.50;34.70
33863;DHT22;20158;51.436;-2.742;2023-06-14T09:38:58;32.50;34.50
33863;DHT22;20158;51.436;-2.742;2023-06-14T09:41:31;32.50;34.30
33863;DHT22;20158;51.436;-2.742;2023-06-14T09:43:59;32.50;34.50
33863;DHT22;20158;51.436;-2.742;2023-06-14T09:46:30;32.60;34.00
33863;DHT22;20158;51.436;-2.742;2023-06-14T09:49:00;32.60;33.90
33863;DHT22;20158;51.436;-2.742;2023-06-14T09:51:27;32.70;33.80
33863;DHT22;20158;51.436;-2.742;2023-06-14T09:54:01;32.80;33.60
33863;DHT22;20158;51.436;-2.742;2023-06-14T09:56:45;32.90;33.40
33863;DHT22;20158;51.436;-2.742;2023-06-14T09:59:13;33.00;33.00
33863;DHT22;20158;51.436;-2.742;2023-06-14T10:01:43;33.10;33.30
33863;DHT22;20158;51.436;-2.742;2023-06-14T10:04:10;33.20;33.20
33863;DHT22;20158;51.436;-2.742;2023-06-14T10:06:45;33.20;33.00
33863;DHT22;20158;51.436;-2.742;2023-06-14T10:09:12;33.40;33.00
33863;DHT22;20158;51.436;-2.742;2023-06-14T10:11:43;33.40;32.90
33863;DHT22;20158;51.436;-2.742;2023-06-14T10:14:12;33.50;32.80
33863;DHT22;20158;51.436;-2.742;2023-06-14T10:16:49;33.50;32.80
33863;DHT22;20158;51.436;-2.742;2023-06-14T10:19:48;33.60;32.70
33863;DHT22;20158;51.436;-2.742;2023-06-14T10:22:24;33.70;32.80
33863;DHT22;20158;51.436;-2.742;2023-06-14T10:24:53;33.80;33.10
33863;DHT22;20158;51.436;-2.742;2023-06-14T10:27:18;33.90;33.10
33863;DHT22;20158;51.436;-2.742;2023-06-14T10:32:28;34.00;32.70
33863;DHT22;20158;51.436;-2.742;2023-06-14T10:35:05;34.10;32.60
33863;DHT22;20158;51.436;-2.742;2023-06-14T10:37:35;34.10;32.30
33863;DHT22;20158;51.436;-2.742;2023-06-14T10:40:08;34.20;32.30
33863;DHT22;20158;51.436;-2.742;2023-06-14T10:42:51;34.30;32.10
33863;DHT22;20158;51.436;-2.742;2023-06-14T10:45:20;34.40;32.00
33863;DHT22;20158;51.436;-2.742;2023-06-14T10:47:49;34.40;32.00
33863;DHT22;20158;51.436;-2.742;2023-06-14T10:50:27;34.50;31.90
33863;DHT22;20158;51.436;-2.742;2023-06-14T10:52:56;34.60;31.70
33863;DHT22;20158;51.436;-2.742;2023-06-14T10:55:22;34.70;31.80
33863;DHT22;20158;51.436;-2.742;2023-06-14T11:00:23;34.80;31.60
33863;DHT22;20158;51.436;-2.742;2023-06-14T11:11:22;35.10;31.10
33863;DHT22;20158;51.436;-2.742;2023-06-14T11:13:51;35.20;31.20
33863;DHT22;20158;51.436;-2.742;2023-06-14T11:16:18;35.20;31.00
33863;DHT22;20158;51.436;-2.742;2023-06-14T11:18:47;35.30;30.90
33863;DHT22;20158;51.436;-2.742;2023-06-14T11:21:18;35.40;30.90
33863;DHT22;20158;51.436;-2.742;2023-06-14T11:23:54;35.50;30.80
33863;DHT22;20158;51.436;-2.742;2023-06-14T11:26:29;35.60;30.80
33863;DHT22;20158;51.436;-2.742;2023-06-14T11:28:57;35.60;30.70
33863;DHT22;20158;51.436;-2.742;2023-06-14T11:31:24;35.70;30.70
33863;DHT22;20158;51.436;-2.742;2023-06-14T11:33:54;35.80;30.70
33863;DHT22;20158;51.436;-2.742;2023-06-14T11:36:31;35.90;30.60
33863;DHT22;20158;51.436;-2.742;2023-06-14T11:39:02;36.00;30.50
33863;DHT22;20158;51.436;-2.742;2023-06-14T11:41:44;36.00;30.50
33863;DHT22;20158;51.436;-2.742;2023-06-14T11:44:11;36.20;30.50
33863;DHT22;20158;51.436;-2.742;2023-06-14T11:46:44;36.20;30.40
33863;DHT22;20158;51.436;-2.742;2023-06-14T11:49:19;36.30;30.40
33863;DHT22;20158;51.436;-2.742;2023-06-14T11:51:53;36.40;30.40
33863;DHT22;20158;51.436;-2.742;2023-06-14T11:54:19;36.50;30.30
33863;DHT22;20158;51.436;-2.742;2023-06-14T11:56:45;36.50;30.30
33863;DHT22;20158;51.436;-2.742;2023-06-14T11:59:13;36.50;30.10
33863;DHT22;20158;51.436;-2.742;2023-06-14T12:01:43;36.60;30.10
33863;DHT22;20158;51.436;-2.742;2023-06-14T12:04:09;36.70;30.10
33863;DHT22;20158;51.436;-2.742;2023-06-14T12:06:35;36.70;30.20
33863;DHT22;20158;51.436;-2.742;2023-06-14T12:09:06;36.80;30.20
33863;DHT22;20158;51.436;-2.742;2023-06-14T12:11:36;36.80;30.10
33863;DHT22;20158;51.436;-2.742;2023-06-14T12:14:04;36.80;30.00
33863;DHT22;20158;51.436;-2.742;2023-06-14T12:16:34;36.90;30.10
33863;DHT22;20158;51.436;-2.742;2023-06-14T12:19:15;36.90;30.10
33863;DHT22;20158;51.436;-2.742;2023-06-14T12:21:42;37.00;30.10
33863;DHT22;20158;51.436;-2.742;2023-06-14T12:24:17;37.10;30.30
33863;DHT22;20158;51.436;-2.742;2023-06-14T12:26:46;37.10;30.10
33863;DHT22;20158;51.436;-2.742;2023-06-14T12:29:19;37.20;30.10
33863;DHT22;20158;51.436;-2.742;2023-06-14T12:31:48;37.20;30.00
33863;DHT22;20158;51.436;-2.742;2023-06-14T12:34:15;37.30;30.00
33863;DHT22;20158;51.436;-2.742;2023-06-14T12:37:01;37.40;30.00
33863;DHT22;20158;51.436;-2.742;2023-06-14T12:39:29;37.50;30.00
33863;DHT22;20158;51.436;-2.742;2023-06-14T12:41:57;37.50;30.00
33863;DHT22;20158;51.436;-2.742;2023-06-14T12:44:23;37.70;30.00
33863;DHT22;20158;51.436;-2.742;2023-06-14T12:46:50;37.70;30.00
33863;DHT22;20158;51.436;-2.742;2023-06-14T12:49:20;37.70;29.90
33863;DHT22;20158;51.436;-2.742;2023-06-14T12:51:49;37.90;29.90
33863;DHT22;20158;51.436;-2.742;2023-06-14T12:54:17;37.90;29.80
33863;DHT22;20158;51.436;-2.742;2023-06-14T12:56:44;38.00;29.80
33863;DHT22;20158;51.436;-2.742;2023-06-14T12:59:13;38.10;29.80
33863;DHT22;20158;51.436;-2.742;2023-06-14T13:01:40;38.20;29.80
33863;DHT22;20158;51.436;-2.742;2023-06-14T13:04:06;38.20;29.70
33863;DHT22;20158;51.436;-2.742;2023-06-14T13:06:32;38.30;29.50
33863;DHT22;20158;51.436;-2.742;2023-06-14T13:08:58;38.20;29.20
33863;DHT22;20158;51.436;-2.742;2023-06-14T13:11:27;38.10;29.00
33863;DHT22;20158;51.436;-2.742;2023-06-14T13:14:03;37.80;28.90
33863;DHT22;20158;51.436;-2.742;2023-06-14T13:16:29;37.50;28.80
33863;DHT22;20158;51.436;-2.742;2023-06-14T13:19:18;37.30;28.80
33863;DHT22;20158;51.436;-2.742;2023-06-14T13:21:44;37.00;28.80
33863;DHT22;20158;51.436;-2.742;2023-06-14T13:24:10;36.80;29.20
33863;DHT22;20158;51.436;-2.742;2023-06-14T13:26:57;36.60;28.80
33863;DHT22;20158;51.436;-2.742;2023-06-14T13:29:26;36.50;28.80
33863;DHT22;20158;51.436;-2.742;2023-06-14T13:31:54;36.40;28.80
33863;DHT22;20158;51.436;-2.742;2023-06-14T13:34:20;36.30;28.80
33863;DHT22;20158;51.436;-2.742;2023-06-14T13:36:49;36.20;28.90
33863;DHT22;20158;51.436;-2.742;2023-06-14T13:39:21;36.20;29.00
33863;DHT22;20158;51.436;-2.742;2023-06-14T13:41:49;36.20;29.00
33863;DHT22;20158;51.436;-2.742;2023-06-14T13:44:15;36.20;29.00
33863;DHT22;20158;51.436;-2.742;2023-06-14T13:46:44;36.20;29.00
33863;DHT22;20158;51.436;-2.742;2023-06-14T13:49:11;36.10;29.00
33863;DHT22;20158;51.436;-2.742;2023-06-14T13:51:38;36.10;29.00
33863;DHT22;20158;51.436;-2.742;2023-06-14T13:54:26;36.10;29.00
33863;DHT22;20158;51.436;-2.742;2023-06-14T13:56:55;36.10;29.00
33863;DHT22;20158;51.436;-2.742;2023-06-14T13:59:24;36.00;29.00
33863;DHT22;20158;51.436;-2.742;2023-06-14T14:01:50;36.00;29.00
33863;DHT22;20158;51.436;-2.742;2023-06-14T14:04:20;36.10;29.10
33863;DHT22;20158;51.436;-2.742;2023-06-14T14:06:46;36.10;29.00
33863;DHT22;20158;51.436;-2.742;2023-06-14T14:09:15;36.10;29.00
33863;DHT22;20158;51.436;-2.742;2023-06-14T14:11:44;36.10;29.00
33863;DHT22;20158;51.436;-2.742;2023-06-14T14:14:15;36.10;29.00
33863;DHT22;20158;51.436;-2.742;2023-06-14T14:16:41;36.10;29.10
33863;DHT22;20158;51.436;-2.742;2023-06-14T14:19:07;36.10;29.10
33863;DHT22;20158;51.436;-2.742;2023-06-14T14:21:36;36.10;29.20
33863;DHT22;20158;51.436;-2.742;2023-06-14T14:24:02;36.10;29.20
33863;DHT22;20158;51.436;-2.742;2023-06-14T14:26:32;36.10;29.20
33863;DHT22;20158;51.436;-2.742;2023-06-14T14:28:58;36.10;29.20
33863;DHT22;20158;51.436;-2.742;2023-06-14T14:31:24;36.00;29.30
33863;DHT22;20158;51.436;-2.742;2023-06-14T14:33:49;36.00;29.40
33863;DHT22;20158;51.436;-2.742;2023-06-14T14:36:17;36.00;29.40
33863;DHT22;20158;51.436;-2.742;2023-06-14T14:38:43;36.00;29.40
33863;DHT22;20158;51.436;-2.742;2023-06-14T14:41:12;36.00;29.30
33863;DHT22;20158;51.436;-2.742;2023-06-14T14:43:43;36.00;29.50
33863;DHT22;20158;51.436;-2.742;2023-06-14T14:46:15;36.00;29.30
33863;DHT22;20158;51.436;-2.742;2023-06-14T14:48:45;36.00;29.30
33863;DHT22;20158;51.436;-2.742;2023-06-14T14:51:11;35.90;29.30
33863;DHT22;20158;51.436;-2.742;2023-06-14T14:53:38;35.90;29.30
33863;DHT22;20158;51.436;-2.742;2023-06-14T14:56:05;35.90;29.40
33863;DHT22;20158;51.436;-2.742;2023-06-14T14:58:31;35.90;29.90
33863;DHT22;20158;51.436;-2.742;2023-06-14T15:00:57;35.90;29.40
33863;DHT22;20158;51.436;-2.742;2023-06-14T15:03:24;35.80;29.40
33863;DHT22;20158;51.436;-2.742;2023-06-14T15:05:50;35.80;29.40
33863;DHT22;20158;51.436;-2.742;2023-06-14T15:08:16;35.80;29.50
33863;DHT22;20158;51.436;-2.742;2023-06-14T15:10:42;35.70;29.50
33863;DHT22;20158;51.436;-2.742;2023-06-14T15:13:09;35.70;29.50
33863;DHT22;20158;51.436;-2.742;2023-06-14T15:15:35;35.60;29.60
33863;DHT22;20158;51.436;-2.742;2023-06-14T15:18:02;35.60;29.60
33863;DHT22;20158;51.436;-2.742;2023-06-14T15:20:29;35.60;29.70
33863;DHT22;20158;51.436;-2.742;2023-06-14T15:22:55;35.50;29.70
33863;DHT22;20158;51.436;-2.742;2023-06-14T15:25:27;35.50;29.80
33863;DHT22;20158;51.436;-2.742;2023-06-14T15:27:54;35.40;29.80
33863;DHT22;20158;51.436;-2.742;2023-06-14T15:30:23;35.40;30.00
33863;DHT22;20158;51.436;-2.742;2023-06-14T15:32:49;35.40;30.10
33863;DHT22;20158;51.436;-2.742;2023-06-14T15:35:17;35.60;30.10
33863;DHT22;20158;51.436;-2.742;2023-06-14T15:37:47;35.80;30.10
33863;DHT22;20158;51.436;-2.742;2023-06-14T15:40:16;36.10;30.20
33863;DHT22;20158;51.436;-2.742;2023-06-14T15:42:42;36.40;30.20
33863;DHT22;20158;51.436;-2.742;2023-06-14T15:45:09;36.60;30.10